createdAt,value
2022-08-19T00:01:40.897Z,15.95
2022-08-19T00:04:10.839Z,19.85
2022-08-19T00:06:38.700Z,20.90
2022-08-19T00:09:07.369Z,22.95
2022-08-19T00:11:35.471Z,20.15
2022-08-19T00:14:02.005Z,22.83
2022-08-19T00:16:28.426Z,21.92
2022-08-19T00:18:56.365Z,25.75
2022-08-19T00:21:25.614Z,23.45
2022-08-19T00:23:52.470Z,31.02
2022-08-19T00:26:19.323Z,33.60
2022-08-19T00:28:45.812Z,30.23
2022-08-19T00:31:12.341Z,28.80
2022-08-19T00:33:38.950Z,25.23
2022-08-19T00:36:08.022Z,27.30
2022-08-19T00:38:37.575Z,26.90
2022-08-19T00:41:06.379Z,31.30
2022-08-19T00:43:33.045Z,30.63
2022-08-19T00:46:00.301Z,25.98
2022-08-19T00:48:27.389Z,30.77
2022-08-19T00:50:55.176Z,25.92
2022-08-19T00:53:25.101Z,29.83
2022-08-19T00:55:55.148Z,37.35
2022-08-19T00:58:25.535Z,34.10
2022-08-19T01:00:52.176Z,36.08
2022-08-19T01:03:21.294Z,31.15
2022-08-19T01:05:49.765Z,32.92
2022-08-19T01:08:18.249Z,34.58
2022-08-19T01:10:49.247Z,34.70
2022-08-19T01:13:17.004Z,35.20
2022-08-19T01:15:49.936Z,34.20
2022-08-19T01:18:18.171Z,28.48
2022-08-19T01:20:45.468Z,27.70
2022-08-19T01:23:13.060Z,22.70
2022-08-19T01:25:45.041Z,28.85
2022-08-19T01:28:33.874Z,26.67
2022-08-19T01:31:01.068Z,23.63
2022-08-19T01:33:35.294Z,21.67
2022-08-19T01:36:23.301Z,27.15
2022-08-19T01:38:50.392Z,27.55
2022-08-19T01:41:18.473Z,26.00
2022-08-19T01:44:10.291Z,25.58
2022-08-19T01:46:33.060Z,24.88
2022-08-19T01:48:59.732Z,31.25
2022-08-19T01:51:27.157Z,26.17
2022-08-19T01:53:55.642Z,25.00
2022-08-19T01:56:22.088Z,25.30
2022-08-19T01:58:58.488Z,31.85
2022-08-19T02:01:25.302Z,27.23
2022-08-19T02:03:57.762Z,25.63
2022-08-19T02:06:26.844Z,23.95
2022-08-19T02:08:53.638Z,27.13
2022-08-19T02:11:27.616Z,32.47
2022-08-19T02:13:55.471Z,29.40
2022-08-19T02:16:22.441Z,25.90
2022-08-19T02:18:49.569Z,32.88
2022-08-19T02:21:17.627Z,32.45
2022-08-19T02:23:44.570Z,28.95
2022-08-19T02:26:11.643Z,28.35
2022-08-19T02:28:38.341Z,30.52
2022-08-19T02:31:10.386Z,33.28
2022-08-19T02:33:37.008Z,40.40
2022-08-19T02:36:08.175Z,32.80
2022-08-19T02:38:35.567Z,28.98
2022-08-19T02:41:05.504Z,29.92
2022-08-19T02:43:37.384Z,27.88
2022-08-19T02:46:29.670Z,35.22
2022-08-19T02:48:59.300Z,30.67
2022-08-19T02:51:29.039Z,32.35
2022-08-19T02:53:56.045Z,33.30
2022-08-19T02:56:22.621Z,30.05
2022-08-19T02:58:49.358Z,31.98
2022-08-19T03:01:33.310Z,32.42
2022-08-19T03:04:01.965Z,39.47
2022-08-19T03:06:28.935Z,38.38
2022-08-19T03:08:56.289Z,41.85
2022-08-19T03:11:30.176Z,42.88
2022-08-19T03:13:56.914Z,39.80
2022-08-19T03:16:27.242Z,43.72
2022-08-19T03:18:54.897Z,38.63
2022-08-19T03:21:24.831Z,40.55
2022-08-19T03:23:54.496Z,40.83
2022-08-19T03:26:21.196Z,34.20
2022-08-19T03:28:51.129Z,36.97
2022-08-19T03:31:44.084Z,46.20
2022-08-19T03:34:18.533Z,41.78
2022-08-19T03:36:45.745Z,41.28
2022-08-19T03:39:12.259Z,41.45
2022-08-19T03:41:45.178Z,42.20
2022-08-19T03:44:23.032Z,43.78
2022-08-19T03:46:56.142Z,35.10
2022-08-19T03:49:27.222Z,37.63
2022-08-19T03:51:57.343Z,38.05
2022-08-19T03:54:26.375Z,33.35
2022-08-19T03:56:55.133Z,36.97
2022-08-19T03:59:26.798Z,40.38
2022-08-19T04:01:58.686Z,34.00
2022-08-19T04:04:29.228Z,38.65
2022-08-19T04:06:56.993Z,33.55
2022-08-19T04:09:23.385Z,31.10
2022-08-19T04:11:56.213Z,31.02
2022-08-19T04:14:26.028Z,32.00
2022-08-19T04:16:53.630Z,32.22
2022-08-19T04:19:20.823Z,36.60
2022-08-19T04:21:49.780Z,31.42
2022-08-19T04:24:16.931Z,32.65
2022-08-19T04:26:43.952Z,33.38
2022-08-19T04:29:16.647Z,31.27
2022-08-19T04:31:45.999Z,31.50
2022-08-19T04:34:16.032Z,35.42
2022-08-19T04:36:45.415Z,41.20
2022-08-19T04:39:16.888Z,40.78
2022-08-19T04:42:02.875Z,41.08
2022-08-19T04:44:35.171Z,44.28
2022-08-19T04:47:10.858Z,37.17
2022-08-19T04:49:38.376Z,44.25
2022-08-19T04:52:04.889Z,49.47
2022-08-19T04:54:38.336Z,54.33
2022-08-19T04:57:10.553Z,51.63
2022-08-19T04:59:39.350Z,54.42
2022-08-19T05:02:07.555Z,52.13
2022-08-19T05:04:34.512Z,45.67
2022-08-19T05:07:02.123Z,51.55
2022-08-19T05:09:55.430Z,59.03
2022-08-19T05:12:16.485Z,58.83
2022-08-19T05:14:42.942Z,60.00
2022-08-19T05:17:26.459Z,57.92
2022-08-19T05:20:13.385Z,58.85
2022-08-19T05:22:40.116Z,59.53
2022-08-19T05:25:13.185Z,58.40
2022-08-19T05:27:41.304Z,67.93
2022-08-19T05:30:08.451Z,55.10
2022-08-19T05:32:34.968Z,53.35
2022-08-19T05:35:01.675Z,57.60
2022-08-19T05:37:28.448Z,56.35
2022-08-19T05:39:55.957Z,55.85
2022-08-19T05:42:23.874Z,49.85
2022-08-19T05:44:51.151Z,54.30
2022-08-19T05:47:19.700Z,56.30
2022-08-19T05:49:46.578Z,53.40
2022-08-19T05:52:16.944Z,54.63
2022-08-19T05:54:51.276Z,59.45
2022-08-19T05:57:19.818Z,56.13
2022-08-19T05:59:49.445Z,64.82
2022-08-19T06:02:20.335Z,63.38
2022-08-19T06:04:46.992Z,53.90
2022-08-19T06:07:13.397Z,57.60
2022-08-19T06:09:41.072Z,49.38
2022-08-19T06:12:10.307Z,44.95
2022-08-19T06:14:40.226Z,51.53
2022-08-19T06:17:09.223Z,47.63
2022-08-19T06:19:40.810Z,43.92
2022-08-19T06:22:08.421Z,43.80
2022-08-19T06:24:36.055Z,49.53
2022-08-19T06:27:03.726Z,45.85
2022-08-19T06:29:30.997Z,48.40
2022-08-19T06:32:00.522Z,41.50
2022-08-19T06:34:29.183Z,46.60
2022-08-19T06:36:56.846Z,41.70
2022-08-19T06:39:26.415Z,42.38
2022-08-19T06:41:58.576Z,48.08
2022-08-19T06:44:35.399Z,46.88
2022-08-19T06:47:14.660Z,44.05
2022-08-19T06:49:49.579Z,46.13
2022-08-19T06:52:16.461Z,47.13
2022-08-19T06:54:56.030Z,44.65
2022-08-19T06:57:25.412Z,43.55
2022-08-19T06:59:52.391Z,47.55
2022-08-19T07:02:20.157Z,44.33
2022-08-19T07:04:46.928Z,47.38
2022-08-19T07:07:19.595Z,46.65
2022-08-19T07:09:51.816Z,48.17
2022-08-19T07:12:25.199Z,50.40
2022-08-19T07:14:53.619Z,49.53
2022-08-19T07:17:21.110Z,54.90
2022-08-19T07:19:48.560Z,60.67
2022-08-19T07:22:15.897Z,53.58
2022-08-19T07:24:51.101Z,54.42
2022-08-19T07:27:19.715Z,57.40
2022-08-19T07:29:56.085Z,56.42
2022-08-19T07:32:26.849Z,51.45
2022-08-19T07:34:53.686Z,51.25
2022-08-19T07:37:20.156Z,56.72
2022-08-19T07:39:46.710Z,53.25
2022-08-19T07:42:14.622Z,47.30
2022-08-19T07:44:42.091Z,53.20
2022-08-19T07:47:12.023Z,51.85
2022-08-19T07:49:55.454Z,43.30
2022-08-19T07:52:22.056Z,46.92
2022-08-19T07:54:48.682Z,49.67
2022-08-19T07:57:15.123Z,45.15
2022-08-19T07:59:41.627Z,49.10
2022-08-19T08:02:09.895Z,49.30
2022-08-19T08:04:55.098Z,48.95
2022-08-19T08:07:39.880Z,41.67
2022-08-19T08:10:21.256Z,43.42
2022-08-19T08:12:52.283Z,51.45
2022-08-19T08:15:39.971Z,48.35
2022-08-19T08:18:08.599Z,46.78
2022-08-19T08:20:36.045Z,48.50
2022-08-19T08:23:21.580Z,44.92
2022-08-19T08:25:49.366Z,41.65
2022-08-19T08:28:17.978Z,46.10
2022-08-19T08:30:48.451Z,46.67
2022-08-19T08:33:32.885Z,45.15
2022-08-19T08:36:09.543Z,38.00
2022-08-19T08:38:41.208Z,33.10
2022-08-19T08:41:38.172Z,37.60
2022-08-19T08:44:05.672Z,36.47
2022-08-19T08:46:40.929Z,36.63
2022-08-19T08:49:29.019Z,31.67
2022-08-19T08:52:03.370Z,31.60
2022-08-19T08:54:38.593Z,31.23
2022-08-19T08:57:12.023Z,32.55
2022-08-19T08:59:42.026Z,34.88
2022-08-19T09:02:09.667Z,37.22
2022-08-19T09:04:38.530Z,28.60
2022-08-19T09:07:18.668Z,30.55
2022-08-19T09:10:18.796Z,35.30
2022-08-19T09:13:09.346Z,35.38
2022-08-19T09:15:45.309Z,36.22
2022-08-19T09:18:19.142Z,31.55
2022-08-19T09:20:47.862Z,30.95
2022-08-19T09:23:15.256Z,30.15
2022-08-19T09:25:42.055Z,35.13
2022-08-19T09:28:22.013Z,36.08
2022-08-19T09:30:49.517Z,33.75
2022-08-19T09:33:16.531Z,35.92
2022-08-19T09:35:49.503Z,35.97
2022-08-19T09:38:16.707Z,26.88
2022-08-19T09:40:43.217Z,33.42
2022-08-19T09:43:13.412Z,33.63
2022-08-19T09:45:40.432Z,30.45
2022-08-19T09:48:07.121Z,32.28
2022-08-19T09:50:35.093Z,36.63
2022-08-19T09:53:01.538Z,35.78
2022-08-19T09:55:31.680Z,30.52
2022-08-19T09:58:00.844Z,28.23
2022-08-19T10:00:27.895Z,31.73
2022-08-19T10:02:54.360Z,31.58
2022-08-19T10:05:42.331Z,30.13
2022-08-19T10:08:13.713Z,32.15
2022-08-19T10:10:46.640Z,25.02
2022-08-19T10:13:16.404Z,28.05
2022-08-19T10:15:47.827Z,37.30
2022-08-19T10:18:18.607Z,31.40
2022-08-19T10:20:51.584Z,27.98
2022-08-19T10:23:21.380Z,25.15
2022-08-19T10:25:48.982Z,29.77
2022-08-19T10:28:15.580Z,27.92
2022-08-19T10:30:42.838Z,29.05
2022-08-19T10:33:10.975Z,28.52
2022-08-19T10:35:56.240Z,24.38
2022-08-19T10:38:31.553Z,25.23
2022-08-19T10:41:07.610Z,31.50
2022-08-19T10:43:36.955Z,27.83
2022-08-19T10:46:04.729Z,27.58
2022-08-19T10:48:36.314Z,25.80
2022-08-19T10:51:23.073Z,29.58
2022-08-19T10:53:50.716Z,22.70
2022-08-19T10:56:37.296Z,28.67
2022-08-19T10:59:04.441Z,27.05
2022-08-19T11:01:34.150Z,26.50
2022-08-19T11:04:05.094Z,30.83
2022-08-19T11:06:34.637Z,31.83
2022-08-19T11:09:01.240Z,28.88
2022-08-19T11:11:29.331Z,32.92
2022-08-19T11:13:56.463Z,27.45
2022-08-19T11:16:26.228Z,35.80
2022-08-19T11:18:55.790Z,30.63
2022-08-19T11:21:33.113Z,30.52
2022-08-19T11:24:02.466Z,32.40
2022-08-19T11:26:31.164Z,30.85
2022-08-19T11:28:58.546Z,25.98
2022-08-19T11:31:29.454Z,30.38
2022-08-19T11:34:02.425Z,33.17
2022-08-19T11:36:29.141Z,34.42
2022-08-19T11:38:55.634Z,30.00
2022-08-19T11:41:24.418Z,30.02
2022-08-19T11:43:53.710Z,24.88
2022-08-19T11:46:20.074Z,28.35
2022-08-19T11:48:47.004Z,28.27
2022-08-19T11:51:16.606Z,29.77
2022-08-19T11:53:43.311Z,28.63
2022-08-19T11:56:10.161Z,26.30
2022-08-19T11:58:37.596Z,26.15
2022-08-19T12:01:16.878Z,25.48
2022-08-19T12:03:44.971Z,28.00
2022-08-19T12:06:14.667Z,27.48
2022-08-19T12:08:43.254Z,24.77
2022-08-19T12:11:11.098Z,25.38
2022-08-19T12:13:39.684Z,21.02
2022-08-19T12:16:15.848Z,23.02
2022-08-19T12:18:47.306Z,20.92
2022-08-19T12:21:15.574Z,23.92
2022-08-19T12:23:44.063Z,18.63
2022-08-19T12:26:11.677Z,20.70
2022-08-19T12:28:38.916Z,20.50
2022-08-19T12:31:06.541Z,19.35
2022-08-19T12:33:33.213Z,17.40
2022-08-19T12:36:09.140Z,19.50
2022-08-19T12:38:36.495Z,22.05
2022-08-19T12:41:06.503Z,21.23
2022-08-19T12:43:35.918Z,19.83
2022-08-19T12:46:06.645Z,19.55
2022-08-19T12:48:37.915Z,20.30
2022-08-19T12:51:11.874Z,24.13
2022-08-19T12:53:39.291Z,22.13
2022-08-19T12:56:09.978Z,23.08
2022-08-19T12:58:39.538Z,17.35
2022-08-19T13:01:11.499Z,16.63
2022-08-19T13:03:40.600Z,25.50
2022-08-19T13:06:09.468Z,18.55
2022-08-19T13:08:42.723Z,20.63
2022-08-19T13:11:17.413Z,18.88
2022-08-19T13:13:47.044Z,24.25
2022-08-19T13:16:15.251Z,18.70
2022-08-19T13:18:43.246Z,17.42
2022-08-19T13:21:14.074Z,16.92
2022-08-19T13:23:41.791Z,18.48
2022-08-19T13:26:10.221Z,20.85
2022-08-19T13:28:55.085Z,16.40
2022-08-19T13:31:42.504Z,14.70
2022-08-19T13:34:09.616Z,18.85
2022-08-19T13:36:37.050Z,18.27
2022-08-19T13:39:05.300Z,16.95
2022-08-19T13:41:32.223Z,17.98
2022-08-19T13:43:58.666Z,17.75
2022-08-19T13:46:25.073Z,14.05
2022-08-19T13:48:51.516Z,18.65
2022-08-19T13:51:18.775Z,16.80
2022-08-19T13:53:48.046Z,15.60
2022-08-19T13:56:17.695Z,18.95
2022-08-19T13:58:44.433Z,16.88
2022-08-19T14:01:11.499Z,13.35
2022-08-19T14:03:38.938Z,16.65
2022-08-19T14:06:05.422Z,13.32
2022-08-19T14:08:33.132Z,17.52
2022-08-19T14:11:00.522Z,17.50
2022-08-19T14:13:34.807Z,16.48
2022-08-19T14:16:01.433Z,18.05
2022-08-19T14:18:28.650Z,13.68
2022-08-19T14:20:57.790Z,13.93
2022-08-19T14:23:25.609Z,12.60
2022-08-19T14:25:52.193Z,15.48
2022-08-19T14:28:18.747Z,14.75
2022-08-19T14:30:45.441Z,17.92
2022-08-19T14:33:12.547Z,14.52
2022-08-19T14:35:39.028Z,16.55
2022-08-19T14:38:06.919Z,14.75
2022-08-19T14:40:33.579Z,15.45
2022-08-19T14:43:04.748Z,14.73
2022-08-19T14:45:33.771Z,16.23
2022-08-19T14:48:01.188Z,17.95
2022-08-19T14:50:28.425Z,15.75
2022-08-19T14:53:09.052Z,14.23
2022-08-19T14:55:43.219Z,17.83
2022-08-19T14:58:09.855Z,12.65
2022-08-19T15:00:56.423Z,14.23
2022-08-19T15:03:22.880Z,13.48
2022-08-19T15:05:49.311Z,15.68
2022-08-19T15:08:15.853Z,13.63
2022-08-19T15:10:42.367Z,11.82
2022-08-19T15:13:09.036Z,13.52
2022-08-19T15:15:35.982Z,12.20
2022-08-19T15:18:03.529Z,13.18
2022-08-19T15:20:30.033Z,14.18
2022-08-19T15:22:56.513Z,12.13
2022-08-19T15:25:23.059Z,10.70
2022-08-19T15:27:49.485Z,12.82
2022-08-19T15:30:22.238Z,14.93
2022-08-19T15:32:49.316Z,12.85
2022-08-19T15:35:16.765Z,13.77
2022-08-19T15:37:43.726Z,18.10
2022-08-19T15:40:10.518Z,14.15
2022-08-19T15:42:38.014Z,14.10
2022-08-19T15:45:09.869Z,15.93
2022-08-19T15:47:36.980Z,13.85
2022-08-19T15:50:18.229Z,38.72
2022-08-19T15:52:54.178Z,32.40
2022-08-19T15:55:33.065Z,14.73
2022-08-19T15:58:30.985Z,12.55
2022-08-19T16:01:20.489Z,12.48
2022-08-19T16:04:13.867Z,15.40
2022-08-19T16:06:53.201Z,12.73
2022-08-19T16:09:27.487Z,11.00
2022-08-19T16:11:57.133Z,11.20
2022-08-19T16:14:28.727Z,12.27
2022-08-19T16:16:56.703Z,15.00
2022-08-19T16:19:24.475Z,10.20
2022-08-19T16:21:53.329Z,10.45
2022-08-19T16:24:23.570Z,10.70
2022-08-19T16:26:50.373Z,12.20
2022-08-19T16:29:33.360Z,11.35
2022-08-19T16:32:03.419Z,12.02
2022-08-19T16:34:30.705Z,14.07
2022-08-19T16:36:57.263Z,11.45
2022-08-19T16:39:24.217Z,10.23
2022-08-19T16:41:51.957Z,11.95
2022-08-19T16:44:19.315Z,12.68
2022-08-19T16:46:47.215Z,11.75
2022-08-19T16:49:54.437Z,10.25
2022-08-19T16:52:12.871Z,12.13
2022-08-19T16:54:43.774Z,14.57
2022-08-19T16:57:12.259Z,12.77
2022-08-19T16:59:48.170Z,9.40
2022-08-19T17:02:18.597Z,13.25
2022-08-19T17:04:57.344Z,9.77
2022-08-19T17:07:33.268Z,11.70
2022-08-19T17:10:01.980Z,12.52
2022-08-19T17:12:31.549Z,10.93
2022-08-19T17:14:59.882Z,10.35
2022-08-19T17:17:29.153Z,12.05
2022-08-19T17:19:55.906Z,11.38
2022-08-19T17:22:22.456Z,9.32
2022-08-19T17:24:49.389Z,9.75
2022-08-19T17:27:15.826Z,10.63
2022-08-19T17:29:46.778Z,11.07
2022-08-19T17:32:14.391Z,10.77
2022-08-19T17:34:40.927Z,12.57
2022-08-19T17:37:07.654Z,10.05
2022-08-19T17:39:37.227Z,12.75
2022-08-19T17:42:06.660Z,11.05
2022-08-19T17:44:36.428Z,10.50
2022-08-19T17:47:04.253Z,12.30
2022-08-19T17:49:33.428Z,10.60
2022-08-19T17:52:00.673Z,12.60
2022-08-19T17:54:30.609Z,12.48
2022-08-19T17:57:01.413Z,13.18
2022-08-19T17:59:29.961Z,12.32
2022-08-19T18:01:57.612Z,13.57
2022-08-19T18:04:25.462Z,12.57
2022-08-19T18:06:54.372Z,13.73
2022-08-19T18:09:26.067Z,10.68
2022-08-19T18:11:54.543Z,11.68
2022-08-19T18:14:32.274Z,13.73
2022-08-19T18:17:09.354Z,13.55
2022-08-19T18:19:41.512Z,11.13
2022-08-19T18:22:10.957Z,10.25
2022-08-19T18:24:39.687Z,11.80
2022-08-19T18:27:07.144Z,14.40
2022-08-19T18:29:34.096Z,11.07
2022-08-19T18:32:00.646Z,10.68
2022-08-19T18:34:27.080Z,11.05
2022-08-19T18:36:54.241Z,12.82
2022-08-19T18:39:39.648Z,7.68
2022-08-19T18:42:34.983Z,10.32
2022-08-19T18:45:24.777Z,17.63
2022-08-19T18:48:27.029Z,10.70
2022-08-19T18:50:56.917Z,12.45
2022-08-19T18:53:23.833Z,11.85
2022-08-19T18:55:53.974Z,13.20
2022-08-19T18:58:33.644Z,11.40
2022-08-19T19:01:03.524Z,11.63
2022-08-19T19:03:30.064Z,14.27
2022-08-19T19:05:56.610Z,15.18
2022-08-19T19:08:26.995Z,14.43
2022-08-19T19:10:54.551Z,13.00
2022-08-19T19:13:21.001Z,11.68
2022-08-19T19:15:47.523Z,13.30
2022-08-19T19:18:13.988Z,14.35
2022-08-19T19:20:40.869Z,15.82
2022-08-19T19:23:08.585Z,13.13
2022-08-19T19:25:49.879Z,13.75
2022-08-19T19:28:17.656Z,15.05
2022-08-19T19:30:44.170Z,11.98
2022-08-19T19:33:10.779Z,14.30
2022-08-19T19:35:37.236Z,12.10
2022-08-19T19:38:04.328Z,13.30
2022-08-19T19:40:30.984Z,12.88
2022-08-19T19:42:59.707Z,14.98
2022-08-19T19:45:26.957Z,15.52
2022-08-19T19:47:53.688Z,14.38
2022-08-19T19:50:20.269Z,14.82
2022-08-19T19:52:46.966Z,13.38
2022-08-19T19:55:18.647Z,14.27
2022-08-19T19:57:46.559Z,14.73
2022-08-19T20:00:16.261Z,14.63
2022-08-19T20:02:49.264Z,13.05
2022-08-19T20:05:19.127Z,16.65
2022-08-19T20:08:04.243Z,17.20
2022-08-19T20:10:32.250Z,16.45
2022-08-19T20:13:02.219Z,13.68
2022-08-19T20:15:29.334Z,16.05
2022-08-19T20:17:55.993Z,14.05
2022-08-19T20:20:23.630Z,16.35
2022-08-19T20:22:50.084Z,18.60
2022-08-19T20:25:18.739Z,13.65
2022-08-19T20:27:49.702Z,18.38
2022-08-19T20:30:21.038Z,15.20
2022-08-19T20:32:49.608Z,16.27
2022-08-19T20:35:18.678Z,15.55
2022-08-19T20:37:45.184Z,18.50
2022-08-19T20:40:16.333Z,15.73
2022-08-19T20:42:47.135Z,15.23
2022-08-19T20:45:32.153Z,17.25
2022-08-19T20:47:59.153Z,15.85
2022-08-19T20:50:26.094Z,14.50
2022-08-19T20:52:56.426Z,18.63
2022-08-19T20:55:22.941Z,18.13
2022-08-19T20:57:49.531Z,18.13
2022-08-19T21:00:16.188Z,17.15
2022-08-19T21:02:42.691Z,16.73
2022-08-19T21:05:09.231Z,20.35
2022-08-19T21:07:38.995Z,19.17
2022-08-19T21:10:06.923Z,17.77
2022-08-19T21:12:33.588Z,17.73
2022-08-19T21:15:00.199Z,16.77
2022-08-19T21:17:26.792Z,22.23
2022-08-19T21:19:53.437Z,17.60
2022-08-19T21:22:20.082Z,19.40
2022-08-19T21:24:46.533Z,19.20
2022-08-19T21:27:13.012Z,20.42
2022-08-19T21:29:40.466Z,19.92
2022-08-19T21:32:07.307Z,21.00
2022-08-19T21:34:33.732Z,21.48
2022-08-19T21:37:00.204Z,20.83
2022-08-19T21:39:27.573Z,18.38
2022-08-19T21:41:54.369Z,21.92
2022-08-19T21:44:20.839Z,20.02
2022-08-19T21:46:50.334Z,20.40
2022-08-19T21:49:17.088Z,20.60
2022-08-19T21:51:43.628Z,23.80
2022-08-19T21:54:14.207Z,19.10
2022-08-19T21:56:41.612Z,19.67
2022-08-19T21:59:08.685Z,18.17
2022-08-19T22:01:35.813Z,24.15
2022-08-19T22:04:02.208Z,22.30
2022-08-19T22:06:29.713Z,19.63
2022-08-19T22:08:56.104Z,22.45
2022-08-19T22:11:23.831Z,21.85
2022-08-19T22:13:53.732Z,23.67
2022-08-19T22:16:20.836Z,18.48
2022-08-19T22:18:48.688Z,20.95
2022-08-19T22:21:15.269Z,20.13
2022-08-19T22:23:47.446Z,23.33
2022-08-19T22:26:16.008Z,23.63
2022-08-19T22:28:43.056Z,21.73
2022-08-19T22:31:10.537Z,23.10
2022-08-19T22:33:38.430Z,23.17
2022-08-19T22:36:10.842Z,23.38
2022-08-19T22:38:38.182Z,22.63
2022-08-19T22:41:07.050Z,25.65
2022-08-19T22:43:34.290Z,21.95
2022-08-19T22:46:01.127Z,20.90
2022-08-19T22:48:30.177Z,21.00
2022-08-19T22:51:16.208Z,21.85
2022-08-19T22:53:44.962Z,21.85
2022-08-19T22:56:15.377Z,22.50
2022-08-19T22:58:42.356Z,20.55
2022-08-19T23:01:11.246Z,26.25
2022-08-19T23:03:51.473Z,23.95
2022-08-19T23:06:18.020Z,21.77
2022-08-19T23:08:44.535Z,21.95
2022-08-19T23:11:11.464Z,21.38
2022-08-19T23:13:39.317Z,21.25
2022-08-19T23:16:06.372Z,22.05
2022-08-19T23:18:34.093Z,20.10
2022-08-19T23:21:01.249Z,19.98
2022-08-19T23:23:28.185Z,19.52
2022-08-19T23:25:56.584Z,20.63
2022-08-19T23:28:42.916Z,18.27
2022-08-19T23:31:09.512Z,21.23
2022-08-19T23:33:50.805Z,21.15
2022-08-19T23:36:20.271Z,18.35
2022-08-19T23:38:49.098Z,28.25
2022-08-19T23:41:17.591Z,18.98
2022-08-19T23:43:44.441Z,17.50
2022-08-19T23:46:13.391Z,18.73
2022-08-19T23:48:40.776Z,18.65
2022-08-19T23:51:10.854Z,17.42
2022-08-19T23:53:41.422Z,21.77
2022-08-19T23:56:10.463Z,18.63
2022-08-19T23:58:38.310Z,18.10
